createdAt,value
2024-01-20T00:01:34.895Z,-0.30
2024-01-20T00:04:03.470Z,-0.40
2024-01-20T00:06:31.600Z,-0.40
2024-01-20T00:08:59.607Z,-0.40
2024-01-20T00:11:28.886Z,-0.40
2024-01-20T00:13:57.274Z,-0.40
2024-01-20T00:16:25.190Z,-0.40
2024-01-20T00:18:53.240Z,-0.40
2024-01-20T00:21:21.767Z,-0.40
2024-01-20T00:23:49.849Z,-0.50
2024-01-20T00:26:17.866Z,-0.40
2024-01-20T00:28:47.134Z,-0.50
2024-01-20T00:31:15.121Z,-0.50
2024-01-20T00:33:43.188Z,-0.50
2024-01-20T00:36:11.221Z,-0.50
2024-01-20T00:38:40.252Z,-0.50
2024-01-20T00:41:08.537Z,-0.50
2024-01-20T00:43:36.858Z,-0.50
2024-01-20T00:46:06.260Z,-0.50
2024-01-20T00:48:34.237Z,-0.60
2024-01-20T00:51:02.139Z,-0.60
2024-01-20T00:53:30.074Z,-0.50
2024-01-20T00:55:58.102Z,-0.60
2024-01-20T00:58:26.162Z,-0.50
2024-01-20T01:00:54.146Z,-0.60
2024-01-20T01:03:23.876Z,-0.60
2024-01-20T01:05:52.075Z,-0.50
2024-01-20T01:08:20.048Z,-0.60
2024-01-20T01:10:48.100Z,-0.60
2024-01-20T01:13:16.013Z,-0.60
2024-01-20T01:15:44.213Z,-0.50
2024-01-20T01:18:12.187Z,-0.60
2024-01-20T01:20:41.504Z,-0.60
2024-01-20T01:23:09.496Z,-0.60
2024-01-20T01:25:37.550Z,-0.60
2024-01-20T01:28:05.843Z,-0.60
2024-01-20T01:30:33.741Z,-0.60
2024-01-20T01:33:01.725Z,-0.60
2024-01-20T01:35:29.621Z,-0.60
2024-01-20T01:37:59.638Z,-0.60
2024-01-20T01:40:27.653Z,-0.60
2024-01-20T01:42:58.227Z,-0.60
2024-01-20T01:45:26.617Z,-0.60
2024-01-20T01:47:56.640Z,-0.60
2024-01-20T01:50:24.697Z,-0.70
2024-01-20T01:52:55.794Z,-0.70
2024-01-20T01:55:26.453Z,-0.70
2024-01-20T01:57:57.305Z,-0.70
2024-01-20T02:00:25.392Z,-0.70
2024-01-20T02:02:53.572Z,-0.70
2024-01-20T02:05:21.583Z,-0.70
2024-01-20T02:07:50.748Z,-0.70
2024-01-20T02:10:19.136Z,-0.70
2024-01-20T02:12:48.990Z,-0.70
2024-01-20T02:15:18.652Z,-0.70
2024-01-20T02:17:54.404Z,-0.70
2024-01-20T02:20:22.932Z,-0.70
2024-01-20T02:22:52.565Z,-0.70
2024-01-20T02:25:20.504Z,-0.70
2024-01-20T02:27:48.473Z,-0.70
2024-01-20T02:30:16.620Z,-0.70
2024-01-20T02:32:44.630Z,-0.70
2024-01-20T02:35:12.595Z,-0.70
2024-01-20T02:37:41.492Z,-0.70
2024-01-20T02:40:12.233Z,-0.70
2024-01-20T02:42:40.142Z,-0.70
2024-01-20T02:45:08.878Z,-0.70
2024-01-20T02:47:37.188Z,-0.70
2024-01-20T02:50:05.585Z,-0.70
2024-01-20T02:52:33.610Z,-0.70
2024-01-20T02:55:01.572Z,-0.70
2024-01-20T02:57:31.036Z,-0.70
2024-01-20T02:59:59.157Z,-0.70
2024-01-20T03:02:27.130Z,-0.80
2024-01-20T03:04:55.083Z,-0.80
2024-01-20T03:07:23.054Z,-0.80
2024-01-20T03:09:50.947Z,-0.80
2024-01-20T03:12:18.909Z,-0.80
2024-01-20T03:14:48.172Z,-0.80
2024-01-20T03:17:16.169Z,-0.90
2024-01-20T03:19:44.111Z,-0.90
2024-01-20T03:22:12.066Z,-0.90
2024-01-20T03:24:40.010Z,-0.90
2024-01-20T03:27:07.966Z,-0.90
2024-01-20T03:29:35.871Z,-0.90
2024-01-20T03:32:05.353Z,-0.90
2024-01-20T03:34:33.361Z,-0.90
2024-01-20T03:37:01.315Z,-0.90
2024-01-20T03:39:29.307Z,-0.90
2024-01-20T03:41:57.638Z,-0.90
2024-01-20T03:44:25.605Z,-0.90
2024-01-20T03:46:53.515Z,-0.80
2024-01-20T03:49:22.941Z,-0.80
2024-01-20T03:51:50.920Z,-0.80
2024-01-20T03:54:18.937Z,-0.80
2024-01-20T03:56:46.847Z,-0.80
2024-01-20T03:59:14.906Z,-0.80
2024-01-20T04:01:42.857Z,-0.80
2024-01-20T04:04:11.117Z,-0.90
2024-01-20T04:06:40.755Z,-0.90
2024-01-20T04:09:08.686Z,-0.90
2024-01-20T04:11:36.621Z,-0.90
2024-01-20T04:14:04.708Z,-0.80
2024-01-20T04:16:33.012Z,-0.80
2024-01-20T04:19:01.112Z,-0.90
2024-01-20T04:21:29.114Z,-0.90
2024-01-20T04:23:58.574Z,-0.90
2024-01-20T04:26:26.525Z,-0.90
2024-01-20T04:28:54.433Z,-0.90
2024-01-20T04:31:22.312Z,-0.90
2024-01-20T04:33:50.891Z,-0.90
2024-01-20T04:36:18.891Z,-0.90
2024-01-20T04:38:46.836Z,-0.90
2024-01-20T04:41:16.110Z,-0.90
2024-01-20T04:43:44.219Z,-0.90
2024-01-20T04:46:12.113Z,-0.90
2024-01-20T04:48:40.155Z,-0.90
2024-01-20T04:51:08.318Z,-0.90
2024-01-20T04:53:36.601Z,-0.90
2024-01-20T04:56:05.717Z,-0.90
2024-01-20T04:58:34.988Z,-1.00
2024-01-20T05:01:02.952Z,-1.00
2024-01-20T05:03:30.959Z,-1.00
2024-01-20T05:05:58.978Z,-0.90
2024-01-20T05:08:27.160Z,-1.00
2024-01-20T05:10:55.117Z,-1.00
2024-01-20T05:13:23.039Z,-1.00
2024-01-20T05:15:53.729Z,-0.90
2024-01-20T05:18:21.792Z,-0.90
2024-01-20T05:20:49.773Z,-1.00
2024-01-20T05:23:17.871Z,-1.00
2024-01-20T05:25:45.888Z,-1.00
2024-01-20T05:28:13.843Z,-1.00
2024-01-20T05:30:42.015Z,-1.00
2024-01-20T05:33:11.411Z,-1.00
2024-01-20T05:35:40.367Z,-0.90
2024-01-20T05:38:08.292Z,-0.90
2024-01-20T05:40:36.660Z,-0.90
2024-01-20T05:43:05.701Z,-0.90
2024-01-20T05:45:33.691Z,-0.90
2024-01-20T05:48:01.745Z,-0.90
2024-01-20T05:50:31.229Z,-0.90
2024-01-20T05:52:59.200Z,-0.90
2024-01-20T05:55:27.183Z,-0.80
2024-01-20T05:57:55.835Z,-0.80
2024-01-20T06:00:24.538Z,-0.90
2024-01-20T06:02:52.859Z,-0.90
2024-01-20T06:05:20.832Z,-0.90
2024-01-20T06:07:50.121Z,-0.90
2024-01-20T06:10:18.246Z,-0.90
2024-01-20T06:12:46.177Z,-0.90
2024-01-20T06:15:14.159Z,-0.90
2024-01-20T06:17:42.177Z,-0.80
2024-01-20T06:20:10.886Z,-0.80
2024-01-20T06:22:40.303Z,-0.90
2024-01-20T06:25:10.155Z,-0.80
2024-01-20T06:27:38.091Z,-0.90
2024-01-20T06:30:07.480Z,-0.90
2024-01-20T06:32:35.425Z,-0.90
2024-01-20T06:35:03.936Z,-1.00
2024-01-20T06:37:31.931Z,-1.00
2024-01-20T06:39:59.875Z,-1.00
2024-01-20T06:42:29.157Z,-1.00
2024-01-20T06:44:58.581Z,-1.00
2024-01-20T06:47:27.856Z,-1.00
2024-01-20T06:49:55.817Z,-1.00
2024-01-20T06:52:23.735Z,-1.10
2024-01-20T06:54:51.700Z,-1.00
2024-01-20T06:57:19.701Z,-1.00
2024-01-20T06:59:48.945Z,-1.00
2024-01-20T07:02:16.913Z,-1.00
2024-01-20T07:04:44.811Z,-1.00
2024-01-20T07:07:12.771Z,-1.00
2024-01-20T07:09:41.579Z,-0.90
2024-01-20T07:12:10.327Z,-1.00
2024-01-20T07:14:38.531Z,-1.00
2024-01-20T07:17:07.785Z,-1.00
2024-01-20T07:19:35.944Z,-1.00
2024-01-20T07:22:04.048Z,-1.00
2024-01-20T07:24:31.938Z,-1.00
2024-01-20T07:27:00.160Z,-1.10
2024-01-20T07:29:28.093Z,-1.00
2024-01-20T07:31:56.132Z,-1.00
2024-01-20T07:34:26.377Z,-1.00
2024-01-20T07:36:54.488Z,-1.00
2024-01-20T07:39:22.464Z,-1.00
2024-01-20T07:41:50.518Z,-1.00
2024-01-20T07:44:18.469Z,-1.00
2024-01-20T07:46:46.346Z,-1.00
2024-01-20T07:49:15.239Z,-0.90
2024-01-20T07:51:44.909Z,-1.00
2024-01-20T07:54:13.601Z,-0.90
2024-01-20T07:56:41.575Z,-0.90
2024-01-20T07:59:09.474Z,-0.90
2024-01-20T08:01:37.466Z,-0.80
2024-01-20T08:04:05.859Z,-0.90
2024-01-20T08:06:33.961Z,-0.90
2024-01-20T08:09:03.596Z,-0.80
2024-01-20T08:11:31.826Z,-0.70
2024-01-20T08:14:00.580Z,-0.70
2024-01-20T08:16:29.937Z,-0.60
2024-01-20T08:18:58.560Z,-0.50
2024-01-20T08:21:26.660Z,-0.40
2024-01-20T08:23:55.858Z,-0.40
2024-01-20T08:26:25.178Z,-0.30
2024-01-20T08:28:53.170Z,-0.20
2024-01-20T08:31:21.168Z,-0.20
2024-01-20T08:33:49.324Z,-0.10
2024-01-20T08:36:17.491Z,0.00
2024-01-20T08:38:45.433Z,-0.10
2024-01-20T08:41:13.426Z,0.00
2024-01-20T08:43:45.702Z,0.00
2024-01-20T08:46:13.936Z,0.00
2024-01-20T08:48:42.479Z,0.10
2024-01-20T08:51:10.522Z,0.20
2024-01-20T08:53:39.098Z,0.20
2024-01-20T08:56:07.733Z,0.20
2024-01-20T08:58:35.767Z,0.20
2024-01-20T09:01:05.500Z,0.30
2024-01-20T09:03:33.627Z,0.30
2024-01-20T09:06:01.963Z,0.20
2024-01-20T09:08:30.191Z,0.30
2024-01-20T09:10:59.342Z,0.20
2024-01-20T09:13:27.511Z,0.20
2024-01-20T09:15:55.560Z,0.30
2024-01-20T09:18:25.480Z,0.30
2024-01-20T09:20:53.574Z,0.30
2024-01-20T09:23:21.800Z,0.40
2024-01-20T09:25:50.096Z,0.40
2024-01-20T09:28:18.001Z,0.50
2024-01-20T09:30:46.438Z,0.70
2024-01-20T09:33:15.390Z,0.60
2024-01-20T09:35:44.964Z,0.60
2024-01-20T09:38:12.912Z,0.60
2024-01-20T09:40:40.917Z,0.70
2024-01-20T09:43:09.891Z,0.60
2024-01-20T09:45:40.289Z,0.70
2024-01-20T09:48:09.291Z,0.80
2024-01-20T09:50:37.382Z,0.90
2024-01-20T09:53:14.360Z,0.80
2024-01-20T09:55:43.669Z,0.90
2024-01-20T09:58:13.470Z,0.80
2024-01-20T10:00:42.888Z,0.80
2024-01-20T10:03:13.214Z,0.70
2024-01-20T10:05:41.631Z,0.70
2024-01-20T10:08:11.951Z,0.80
2024-01-20T10:10:39.946Z,0.90
2024-01-20T10:13:07.880Z,0.90
2024-01-20T10:15:37.017Z,1.10
2024-01-20T10:18:09.498Z,1.10
2024-01-20T10:20:38.161Z,1.10
2024-01-20T10:23:08.025Z,1.10
2024-01-20T10:25:37.486Z,1.10
2024-01-20T10:28:05.810Z,1.20
2024-01-20T10:30:34.096Z,1.10
2024-01-20T10:33:09.756Z,1.20
2024-01-20T10:35:39.281Z,1.30
2024-01-20T10:38:12.392Z,1.30
2024-01-20T10:40:44.078Z,1.30
2024-01-20T10:43:15.658Z,1.50
2024-01-20T10:45:47.699Z,1.40
2024-01-20T10:48:19.766Z,1.40
2024-01-20T10:50:54.580Z,1.40
2024-01-20T10:53:24.041Z,1.50
2024-01-20T10:55:54.021Z,1.40
2024-01-20T10:58:25.289Z,1.40
2024-01-20T11:00:54.290Z,1.50
2024-01-20T11:03:23.142Z,1.50
2024-01-20T11:05:51.296Z,1.50
2024-01-20T11:08:26.299Z,1.60
2024-01-20T11:10:56.772Z,1.50
2024-01-20T11:13:29.054Z,1.50
2024-01-20T11:15:59.179Z,1.60
2024-01-20T11:18:28.192Z,1.60
2024-01-20T11:21:00.572Z,1.80
2024-01-20T11:23:28.836Z,2.00
2024-01-20T11:26:00.223Z,2.10
2024-01-20T11:28:32.760Z,2.10
2024-01-20T11:31:01.154Z,2.30
2024-01-20T11:33:29.530Z,2.50
2024-01-20T11:35:57.564Z,2.40
2024-01-20T11:38:25.492Z,2.40
2024-01-20T11:41:01.683Z,2.50
2024-01-20T11:43:30.001Z,2.80
2024-01-20T11:45:58.510Z,2.90
2024-01-20T11:48:27.162Z,2.80
2024-01-20T11:50:55.858Z,3.00
2024-01-20T11:53:24.621Z,2.90
2024-01-20T11:55:57.109Z,2.70
2024-01-20T11:58:26.485Z,2.70
2024-01-20T12:00:55.926Z,2.60
2024-01-20T12:03:24.708Z,2.70
2024-01-20T12:05:53.302Z,2.70
2024-01-20T12:08:22.192Z,2.70
2024-01-20T12:10:51.132Z,2.60
2024-01-20T12:13:19.170Z,2.70
2024-01-20T12:15:50.718Z,2.70
2024-01-20T12:18:19.321Z,2.70
2024-01-20T12:20:47.516Z,2.90
2024-01-20T12:23:21.125Z,2.80
2024-01-20T12:25:52.848Z,2.80
2024-01-20T12:28:21.010Z,2.80
2024-01-20T12:30:50.723Z,2.80
2024-01-20T12:33:18.827Z,3.00
2024-01-20T12:35:47.140Z,3.20
2024-01-20T12:38:15.288Z,3.30
2024-01-20T12:40:43.219Z,3.40
2024-01-20T12:43:12.190Z,3.30
2024-01-20T12:45:40.435Z,3.10
2024-01-20T12:48:10.117Z,3.50
2024-01-20T12:50:38.124Z,3.50
2024-01-20T12:53:06.163Z,3.40
2024-01-20T12:55:34.122Z,3.30
2024-01-20T12:58:02.186Z,3.30
2024-01-20T13:00:30.292Z,3.40
2024-01-20T13:02:58.299Z,3.50
2024-01-20T13:05:27.714Z,3.50
2024-01-20T13:07:55.835Z,3.70
2024-01-20T13:10:23.741Z,4.00
2024-01-20T13:12:51.663Z,4.10
2024-01-20T13:15:20.222Z,4.30
2024-01-20T13:17:50.995Z,4.50
2024-01-20T13:20:19.380Z,4.20
2024-01-20T13:22:49.021Z,4.10
2024-01-20T13:25:16.948Z,3.80
2024-01-20T13:27:45.139Z,3.90
2024-01-20T13:30:14.881Z,3.90
2024-01-20T13:32:42.981Z,3.90
2024-01-20T13:35:11.053Z,4.00
2024-01-20T13:37:38.978Z,3.80
2024-01-20T13:40:10.668Z,3.90
2024-01-20T13:42:39.847Z,4.10
2024-01-20T13:45:09.617Z,4.00
2024-01-20T13:47:38.491Z,4.00
2024-01-20T13:50:07.468Z,3.90
2024-01-20T13:52:35.492Z,3.80
2024-01-20T13:55:03.812Z,3.60
2024-01-20T13:57:33.505Z,3.40
2024-01-20T14:00:01.905Z,3.30
2024-01-20T14:02:29.877Z,3.30
2024-01-20T14:04:57.880Z,3.20
2024-01-20T14:07:25.841Z,3.30
2024-01-20T14:09:53.842Z,3.40
2024-01-20T14:12:21.883Z,3.40
2024-01-20T14:14:51.645Z,3.30
2024-01-20T14:17:19.569Z,3.30
2024-01-20T14:19:47.546Z,3.30
2024-01-20T14:22:15.949Z,3.20
2024-01-20T14:24:43.896Z,3.20
2024-01-20T14:27:11.961Z,3.20
2024-01-20T14:29:40.028Z,3.20
2024-01-20T14:32:10.770Z,3.20
2024-01-20T14:34:39.439Z,3.10
2024-01-20T14:37:08.257Z,3.00
2024-01-20T14:39:36.718Z,3.00
2024-01-20T14:42:05.302Z,2.90
2024-01-20T14:44:33.496Z,2.90
2024-01-20T14:47:01.875Z,2.90
2024-01-20T14:49:31.418Z,2.80
2024-01-20T14:51:59.446Z,2.80
2024-01-20T14:54:27.576Z,2.70
2024-01-20T14:56:55.821Z,2.70
2024-01-20T14:59:23.768Z,2.60
2024-01-20T15:01:51.706Z,2.60
2024-01-20T15:04:19.936Z,2.60
2024-01-20T15:06:49.357Z,2.50
2024-01-20T15:09:17.353Z,2.50
2024-01-20T15:11:45.291Z,2.40
2024-01-20T15:14:13.770Z,2.40
2024-01-20T15:16:42.979Z,2.40
2024-01-20T15:19:11.503Z,2.30
2024-01-20T15:21:39.493Z,2.30
2024-01-20T15:24:09.044Z,2.20
2024-01-20T15:26:37.699Z,2.20
2024-01-20T15:29:06.097Z,2.10
2024-01-20T15:31:34.005Z,2.10
2024-01-20T15:34:02.274Z,2.00
2024-01-20T15:36:30.332Z,2.00
2024-01-20T15:38:58.338Z,2.00
2024-01-20T15:41:27.807Z,2.00
2024-01-20T15:43:55.902Z,2.10
2024-01-20T15:46:23.840Z,2.00
2024-01-20T15:48:52.000Z,2.00
2024-01-20T15:51:20.091Z,2.00
2024-01-20T15:53:48.165Z,1.90
2024-01-20T15:56:18.497Z,1.90
2024-01-20T15:58:47.937Z,1.90
2024-01-20T16:01:16.536Z,1.90
2024-01-20T16:03:44.566Z,1.90
2024-01-20T16:06:12.570Z,1.80
2024-01-20T16:08:40.596Z,1.80
2024-01-20T16:11:08.667Z,1.80
2024-01-20T16:13:36.574Z,1.70
2024-01-20T16:16:06.812Z,1.60
2024-01-20T16:18:35.679Z,1.60
2024-01-20T16:21:04.902Z,1.50
2024-01-20T16:23:32.857Z,1.50
2024-01-20T16:26:00.748Z,1.50
2024-01-20T16:28:30.930Z,1.50
2024-01-20T16:31:00.648Z,1.50
2024-01-20T16:33:30.091Z,1.50
2024-01-20T16:35:58.045Z,1.40
2024-01-20T16:38:26.063Z,1.40
2024-01-20T16:40:54.037Z,1.40
2024-01-20T16:43:26.131Z,1.40
2024-01-20T16:45:55.041Z,1.30
2024-01-20T16:48:23.060Z,1.40
2024-01-20T16:50:52.506Z,1.30
2024-01-20T16:53:21.809Z,1.30
2024-01-20T16:55:49.859Z,1.30
2024-01-20T16:58:18.424Z,1.20
2024-01-20T17:00:46.727Z,1.20
2024-01-20T17:03:14.911Z,1.20
2024-01-20T17:05:42.969Z,1.10
2024-01-20T17:08:13.071Z,1.10
2024-01-20T17:10:41.018Z,1.10
2024-01-20T17:13:09.037Z,1.10
2024-01-20T17:15:37.096Z,1.10
2024-01-20T17:18:05.949Z,1.10
2024-01-20T17:20:34.411Z,1.10
2024-01-20T17:23:02.887Z,1.00
2024-01-20T17:25:32.175Z,1.00
2024-01-20T17:28:00.064Z,1.00
2024-01-20T17:30:28.035Z,1.00
2024-01-20T17:32:55.986Z,1.00
2024-01-20T17:35:24.493Z,1.00
2024-01-20T17:37:54.409Z,1.00
2024-01-20T17:40:23.134Z,1.00
2024-01-20T17:42:52.582Z,0.90
2024-01-20T17:45:21.439Z,0.90
2024-01-20T17:47:49.541Z,0.90
2024-01-20T17:50:17.561Z,0.90
2024-01-20T17:52:45.532Z,0.90
2024-01-20T17:55:13.543Z,0.90
2024-01-20T17:57:41.677Z,0.90
2024-01-20T18:00:14.220Z,0.90
2024-01-20T18:02:42.625Z,0.90
2024-01-20T18:05:10.965Z,0.90
2024-01-20T18:07:38.950Z,0.90
2024-01-20T18:10:07.633Z,0.90
2024-01-20T18:12:35.842Z,0.90
2024-01-20T18:15:06.982Z,0.90
2024-01-20T18:17:36.695Z,0.90
2024-01-20T18:20:05.797Z,0.90
2024-01-20T18:22:34.082Z,0.90
2024-01-20T18:25:02.558Z,0.90
2024-01-20T18:27:30.740Z,0.90
2024-01-20T18:29:58.677Z,0.90
2024-01-20T18:32:26.700Z,0.90
2024-01-20T18:34:56.297Z,0.90
2024-01-20T18:37:24.639Z,0.90
2024-01-20T18:39:53.557Z,0.90
2024-01-20T18:42:21.638Z,0.80
2024-01-20T18:44:49.746Z,0.80
2024-01-20T18:47:18.140Z,0.80
2024-01-20T18:49:46.163Z,0.80
2024-01-20T18:52:15.744Z,0.80
2024-01-20T18:54:45.530Z,0.80
2024-01-20T18:57:13.719Z,0.70
2024-01-20T18:59:42.650Z,0.70
2024-01-20T19:02:10.588Z,0.70
2024-01-20T19:04:39.471Z,0.70
2024-01-20T19:07:07.609Z,0.70
2024-01-20T19:09:38.806Z,0.70
2024-01-20T19:12:07.236Z,0.60
2024-01-20T19:14:35.211Z,0.60
2024-01-20T19:17:03.200Z,0.60
2024-01-20T19:19:32.612Z,0.60
2024-01-20T19:22:00.864Z,0.60
2024-01-20T19:24:28.805Z,0.50
2024-01-20T19:26:58.187Z,0.50
2024-01-20T19:29:26.178Z,0.50
2024-01-20T19:31:54.225Z,0.40
2024-01-20T19:34:22.208Z,0.40
2024-01-20T19:36:50.177Z,0.40
2024-01-20T19:39:18.240Z,0.40
2024-01-20T19:41:46.315Z,0.40
2024-01-20T19:44:15.625Z,0.40
2024-01-20T19:46:44.336Z,0.30
2024-01-20T19:49:12.555Z,0.30
2024-01-20T19:51:44.471Z,0.30
2024-01-20T19:54:13.506Z,0.40
2024-01-20T19:56:44.444Z,0.40
2024-01-20T19:59:13.727Z,0.40
2024-01-20T20:01:46.950Z,0.50
2024-01-20T20:04:17.664Z,0.50
2024-01-20T20:06:46.476Z,0.50
2024-01-20T20:09:14.759Z,0.50
2024-01-20T20:11:42.943Z,0.40
2024-01-20T20:14:11.587Z,0.40
2024-01-20T20:16:41.292Z,0.40
2024-01-20T20:19:13.140Z,0.30
2024-01-20T20:21:41.632Z,0.30
2024-01-20T20:24:11.383Z,0.30
2024-01-20T20:26:43.128Z,0.30
2024-01-20T20:29:12.890Z,0.20
2024-01-20T20:31:41.363Z,0.20
2024-01-20T20:34:10.994Z,0.20
2024-01-20T20:36:40.859Z,0.20
2024-01-20T20:39:09.056Z,0.20
2024-01-20T20:41:36.955Z,0.20
2024-01-20T20:44:04.889Z,0.20
2024-01-20T20:46:34.597Z,0.10
2024-01-20T20:49:04.757Z,0.10
2024-01-20T20:51:34.246Z,0.10
2024-01-20T20:54:02.168Z,0.10
2024-01-20T20:56:30.103Z,0.10
2024-01-20T20:58:58.016Z,0.10
2024-01-20T21:01:26.026Z,0.10
2024-01-20T21:03:54.159Z,0.10
2024-01-20T21:06:22.422Z,0.10
2024-01-20T21:08:51.757Z,0.10
2024-01-20T21:11:19.828Z,0.10
2024-01-20T21:13:48.096Z,0.10
2024-01-20T21:16:16.041Z,0.10
2024-01-20T21:18:44.104Z,0.10
2024-01-20T21:21:12.142Z,0.10
2024-01-20T21:23:40.124Z,0.10
2024-01-20T21:26:09.797Z,0.10
2024-01-20T21:28:37.942Z,0.10
2024-01-20T21:31:08.129Z,0.10
2024-01-20T21:33:36.680Z,0.20
2024-01-20T21:36:05.975Z,0.20
2024-01-20T21:38:33.887Z,0.20
2024-01-20T21:41:01.818Z,0.20
2024-01-20T21:43:31.091Z,0.20
2024-01-20T21:45:59.306Z,0.20
2024-01-20T21:48:27.400Z,0.20
2024-01-20T21:50:56.854Z,0.20
2024-01-20T21:53:25.475Z,0.20
2024-01-20T21:55:53.439Z,0.30
2024-01-20T21:58:21.390Z,0.30
2024-01-20T22:00:50.838Z,0.30
2024-01-20T22:03:19.069Z,0.20
2024-01-20T22:05:47.283Z,0.30
2024-01-20T22:08:15.204Z,0.30
2024-01-20T22:10:43.110Z,0.30
2024-01-20T22:13:11.007Z,0.30
2024-01-20T22:15:39.845Z,0.30
2024-01-20T22:18:09.294Z,0.30
2024-01-20T22:20:37.457Z,0.30
2024-01-20T22:23:05.869Z,0.30
2024-01-20T22:25:33.758Z,0.30
2024-01-20T22:28:01.641Z,0.30
2024-01-20T22:30:29.567Z,0.30
2024-01-20T22:32:57.594Z,0.30
2024-01-20T22:35:30.521Z,0.30
2024-01-20T22:37:59.133Z,0.40
2024-01-20T22:40:27.811Z,0.30
2024-01-20T22:42:55.942Z,0.30
2024-01-20T22:45:23.965Z,0.40
2024-01-20T22:47:52.051Z,0.40
2024-01-20T22:50:20.322Z,0.40
2024-01-20T22:52:49.711Z,0.40
2024-01-20T22:55:18.677Z,0.40
2024-01-20T22:57:46.789Z,0.40
2024-01-20T23:00:15.627Z,0.40
2024-01-20T23:02:44.100Z,0.40
2024-01-20T23:05:12.454Z,0.40
2024-01-20T23:07:39.587Z,0.40
2024-01-20T23:10:10.169Z,0.50
2024-01-20T23:12:38.392Z,0.40
2024-01-20T23:15:07.656Z,0.40
2024-01-20T23:17:35.664Z,0.40
2024-01-20T23:20:03.616Z,0.40
2024-01-20T23:22:32.522Z,0.40
2024-01-20T23:25:00.452Z,0.40
2024-01-20T23:27:29.728Z,0.40
2024-01-20T23:29:57.695Z,0.30
2024-01-20T23:32:25.625Z,0.30
2024-01-20T23:34:54.101Z,0.40
2024-01-20T23:37:22.025Z,0.40
2024-01-20T23:39:49.993Z,0.40
2024-01-20T23:42:17.988Z,0.40
2024-01-20T23:44:47.409Z,0.40
2024-01-20T23:47:15.421Z,0.30
2024-01-20T23:49:43.352Z,0.30
2024-01-20T23:52:11.448Z,0.30
2024-01-20T23:54:39.466Z,0.30
2024-01-20T23:57:07.485Z,0.30
2024-01-20T23:59:35.403Z,0.30
